Time;durP1;ratioP1;P1;durP2;ratioP2;P2;SDS_P1;SDS_P2;PMS_P1;PMS_P2;Temp;Humidity;BMP_temperature;BMP_pressure;BME280_temperature;BME280_humidity;BME280_pressure;Samples;Min_cycle;Max_cycle;Signal;HPM_P1;HPM_P2
2022/07/09 00:00:06;;;;;;;10.30;5.22;;;16.20;99.90;;;;;;5065628;28;20086;-63
2022/07/09 00:02:34;;;;;;;10.65;7.00;;;16.20;99.90;;;;;;5054721;28;20559;-63
2022/07/09 00:04:59;;;;;;;11.93;6.20;;;16.20;99.90;;;;;;5050383;28;20045;-63
2022/07/09 00:07:26;;;;;;;11.90;6.30;;;16.20;99.90;;;;;;5045213;28;20384;-63
2022/07/09 00:09:52;;;;;;;13.55;7.38;;;16.20;99.90;;;;;;5047657;28;20071;-63
2022/07/09 00:12:18;;;;;;;12.77;6.97;;;16.20;99.90;;;;;;5064146;28;20069;-63
2022/07/09 00:14:43;;;;;;;10.30;5.82;;;16.20;99.90;;;;;;5059122;28;20048;-63
2022/07/09 00:17:09;;;;;;;12.02;6.80;;;16.20;99.90;;;;;;5065432;28;20067;-63
2022/07/09 00:19:34;;;;;;;12.07;6.68;;;16.20;99.90;;;;;;5052338;28;20476;-63
2022/07/09 00:22:00;;;;;;;12.77;6.20;;;16.10;99.90;;;;;;5054816;28;20550;-63
2022/07/09 00:24:25;;;;;;;13.63;6.40;;;16.10;99.90;;;;;;5052811;28;20041;-63
2022/07/09 00:26:51;;;;;;;10.07;6.00;;;16.10;99.90;;;;;;5058650;28;20037;-63
2022/07/09 00:29:16;;;;;;;9.88;5.97;;;16.00;99.90;;;;;;5049825;28;20047;-63
2022/07/09 00:31:42;;;;;;;10.18;6.13;;;16.00;99.90;;;;;;5031193;28;20044;-63
2022/07/09 00:34:07;;;;;;;11.65;6.43;;;16.00;99.90;;;;;;5048637;28;20044;-63
2022/07/09 00:36:33;;;;;;;13.13;6.35;;;16.00;99.90;;;;;;5047983;28;20290;-63
2022/07/09 00:38:59;;;;;;;11.13;5.78;;;15.90;99.90;;;;;;5048526;28;20040;-63
2022/07/09 00:41:24;;;;;;;13.35;6.68;;;15.90;99.90;;;;;;5058751;28;20036;-63
2022/07/09 00:43:50;;;;;;;15.02;6.72;;;15.90;99.90;;;;;;5053344;28;20090;-63
2022/07/09 00:46:17;;;;;;;15.13;5.97;;;15.90;99.90;;;;;;5051276;28;20051;-63
2022/07/09 00:48:42;;;;;;;11.70;6.20;;;15.90;99.90;;;;;;5052953;28;20037;-63
2022/07/09 00:51:11;;;;;;;13.98;6.10;;;16.00;99.90;;;;;;5058148;28;20639;-63
2022/07/09 00:53:37;;;;;;;14.32;6.07;;;15.90;99.90;;;;;;5052983;28;20036;-63
2022/07/09 00:56:04;;;;;;;12.25;5.97;;;15.90;99.90;;;;;;5061600;28;20052;-63
2022/07/09 00:58:30;;;;;;;11.88;6.35;;;16.00;99.90;;;;;;5060802;28;20028;-63
2022/07/09 01:00:56;;;;;;;10.10;5.72;;;16.00;99.90;;;;;;5057009;28;20396;-63
2022/07/09 01:03:21;;;;;;;12.68;6.65;;;16.00;99.90;;;;;;5061347;28;20043;-63
2022/07/09 01:05:48;;;;;;;14.65;6.97;;;16.00;99.90;;;;;;5050462;28;20384;-63
2022/07/09 01:08:13;;;;;;;10.63;6.18;;;15.90;99.90;;;;;;5048310;28;20036;-63
2022/07/09 01:10:40;;;;;;;12.65;6.13;;;15.90;99.90;;;;;;5056566;28;20644;-63
2022/07/09 01:13:06;;;;;;;12.07;6.22;;;15.80;99.90;;;;;;5050344;28;20052;-63
2022/07/09 01:15:32;;;;;;;18.25;6.90;;;15.80;99.90;;;;;;5050586;28;20033;-63
2022/07/09 01:17:58;;;;;;;12.20;6.55;;;15.80;99.90;;;;;;5066000;28;20040;-63
2022/07/09 01:20:25;;;;;;;13.95;6.75;;;15.80;99.90;;;;;;5049476;28;20037;-63
2022/07/09 01:22:51;;;;;;;11.60;5.60;;;15.80;99.90;;;;;;5057060;28;20086;-63
2022/07/09 01:25:18;;;;;;;15.38;6.25;;;15.80;99.90;;;;;;5057145;28;20036;-63
2022/07/09 01:27:45;;;;;;;10.70;5.43;;;15.80;99.90;;;;;;5055405;28;20101;-63
2022/07/09 01:30:11;;;;;;;11.65;5.82;;;15.90;99.90;;;;;;5051367;28;20786;-63
2022/07/09 01:32:37;;;;;;;13.13;6.63;;;15.90;99.90;;;;;;5050799;28;20124;-63
2022/07/09 01:35:03;;;;;;;15.00;6.35;;;15.90;99.90;;;;;;5062384;28;20036;-63
2022/07/09 01:37:28;;;;;;;14.35;5.80;;;15.90;99.90;;;;;;5059401;28;20041;-63
2022/07/09 01:39:54;;;;;;;10.82;6.20;;;16.00;99.90;;;;;;5059577;28;20357;-63
2022/07/09 01:42:20;;;;;;;11.18;5.90;;;16.00;99.90;;;;;;5057786;28;20044;-63
2022/07/09 01:44:48;;;;;;;15.73;6.53;;;16.00;99.90;;;;;;5049331;28;20506;-63
2022/07/09 01:47:16;;;;;;;15.98;6.57;;;16.00;99.90;;;;;;5054112;28;20037;-63
2022/07/09 01:49:42;;;;;;;13.30;6.07;;;16.00;99.90;;;;;;5051631;28;20033;-63
2022/07/09 01:52:08;;;;;;;17.27;6.85;;;16.00;99.90;;;;;;5038217;28;20047;-63
2022/07/09 01:54:34;;;;;;;16.65;7.95;;;16.00;99.90;;;;;;5051037;28;20094;-63
2022/07/09 01:56:59;;;;;;;14.45;6.50;;;16.00;99.90;;;;;;5059068;28;20133;-63
2022/07/09 01:59:25;;;;;;;17.23;7.28;;;16.00;99.90;;;;;;5054014;28;20047;-63
2022/07/09 02:01:50;;;;;;;12.07;6.55;;;16.00;99.90;;;;;;5058012;28;20043;-63
2022/07/09 02:04:19;;;;;;;12.93;7.03;;;16.00;99.90;;;;;;5053737;28;20037;-62
2022/07/09 02:06:45;;;;;;;15.07;7.82;;;16.00;99.90;;;;;;5055138;28;20556;-63
2022/07/09 02:09:10;;;;;;;15.43;7.70;;;16.10;99.90;;;;;;5049804;28;20116;-63
2022/07/09 02:11:37;;;;;;;15.40;6.60;;;16.00;99.90;;;;;;5050352;28;20068;-63
2022/07/09 02:14:02;;;;;;;11.73;6.63;;;16.10;99.90;;;;;;5054444;28;20041;-63
2022/07/09 02:16:28;;;;;;;17.75;7.50;;;16.00;99.90;;;;;;5054215;28;20040;-63
2022/07/09 02:18:54;;;;;;;13.00;6.85;;;16.00;99.90;;;;;;5059968;28;20121;-63
2022/07/09 02:21:19;;;;;;;18.35;6.88;;;16.00;99.90;;;;;;5048495;28;20029;-63
2022/07/09 02:23:45;;;;;;;14.90;6.40;;;16.00;99.90;;;;;;5049479;28;20033;-63
2022/07/09 02:26:11;;;;;;;15.68;7.00;;;16.00;99.90;;;;;;5052207;28;20036;-63
2022/07/09 02:28:36;;;;;;;10.88;6.45;;;16.00;99.90;;;;;;5051053;28;20381;-63
2022/07/09 02:31:02;;;;;;;13.32;6.95;;;16.00;99.90;;;;;;5056719;28;20044;-63
2022/07/09 02:33:28;;;;;;;12.85;6.55;;;16.00;99.90;;;;;;5064019;28;20090;-63
2022/07/09 02:35:53;;;;;;;16.27;7.88;;;16.00;99.90;;;;;;5054409;28;20068;-63
2022/07/09 02:38:21;;;;;;;15.55;7.70;;;15.90;99.90;;;;;;5054706;28;20117;-63
2022/07/09 02:40:47;;;;;;;16.00;7.68;;;15.80;99.90;;;;;;5051906;28;20819;-63
2022/07/09 02:43:12;;;;;;;14.52;7.10;;;15.80;99.90;;;;;;5066076;28;20033;-63
2022/07/09 02:45:38;;;;;;;15.68;7.13;;;15.80;99.90;;;;;;5054728;28;20028;-63
2022/07/09 02:48:03;;;;;;;14.02;6.88;;;15.80;99.90;;;;;;5059756;28;20040;-63
2022/07/09 02:50:29;;;;;;;14.00;7.00;;;15.80;99.90;;;;;;5056195;28;20043;-63
2022/07/09 02:52:54;;;;;;;12.30;6.43;;;15.80;99.90;;;;;;5050712;28;20037;-63
2022/07/09 02:55:20;;;;;;;12.07;7.35;;;15.80;99.90;;;;;;5054436;28;20055;-63
2022/07/09 02:57:45;;;;;;;12.00;7.00;;;15.80;99.90;;;;;;5050172;28;20120;-63
2022/07/09 03:00:11;;;;;;;14.30;6.95;;;15.90;99.90;;;;;;5048007;28;20116;-63
2022/07/09 03:02:37;;;;;;;12.30;7.50;;;15.80;99.90;;;;;;5055906;28;20032;-63
2022/07/09 03:05:03;;;;;;;15.10;7.40;;;15.90;99.90;;;;;;5058920;28;20052;-63
2022/07/09 03:07:29;;;;;;;13.68;7.13;;;15.90;99.90;;;;;;5061872;28;20071;-63
2022/07/09 03:09:55;;;;;;;14.20;6.82;;;15.90;99.90;;;;;;5051094;28;20402;-63
2022/07/09 03:12:20;;;;;;;13.90;7.90;;;16.00;99.90;;;;;;5054873;28;20048;-63
2022/07/09 03:14:46;;;;;;;14.00;8.07;;;16.00;99.90;;;;;;5059070;28;20044;-63
2022/07/09 03:17:11;;;;;;;18.05;7.95;;;16.00;99.90;;;;;;5057683;28;20041;-63
2022/07/09 03:19:37;;;;;;;17.85;7.05;;;16.00;99.90;;;;;;5057142;28;20436;-63
2022/07/09 03:22:03;;;;;;;17.70;7.85;;;15.90;99.90;;;;;;5050529;28;20567;-63
2022/07/09 03:24:28;;;;;;;13.73;7.80;;;15.90;99.90;;;;;;5050034;28;20033;-64
2022/07/09 03:26:54;;;;;;;15.38;7.25;;;15.90;99.90;;;;;;5049932;28;20037;-64
2022/07/09 03:29:19;;;;;;;17.63;7.47;;;15.90;99.90;;;;;;5052268;28;20037;-63
2022/07/09 03:31:45;;;;;;;15.02;7.35;;;15.80;99.90;;;;;;5055873;28;20035;-63
2022/07/09 03:34:10;;;;;;;13.10;6.80;;;15.80;99.90;;;;;;5053232;28;20045;-63
2022/07/09 03:36:36;;;;;;;14.57;6.78;;;15.70;99.90;;;;;;5057790;28;20045;-63
2022/07/09 03:39:02;;;;;;;13.35;6.38;;;15.70;99.90;;;;;;5054471;28;20111;-63
2022/07/09 03:41:27;;;;;;;14.68;7.07;;;15.70;99.90;;;;;;5053913;28;20530;-63
2022/07/09 03:43:53;;;;;;;17.23;7.75;;;15.60;99.90;;;;;;5058098;28;20040;-63
2022/07/09 03:46:18;;;;;;;11.88;6.70;;;15.60;99.90;;;;;;5051051;28;21073;-63
2022/07/09 03:48:44;;;;;;;16.20;7.40;;;15.60;99.90;;;;;;5050887;28;20044;-63
2022/07/09 03:51:10;;;;;;;17.40;7.72;;;15.60;99.90;;;;;;5059405;28;20779;-63
2022/07/09 03:53:35;;;;;;;15.65;7.55;;;15.60;99.90;;;;;;5055446;28;20032;-63
2022/07/09 03:56:01;;;;;;;14.32;7.40;;;15.60;99.90;;;;;;5050252;28;20045;-63
2022/07/09 03:58:27;;;;;;;13.73;7.60;;;15.60;99.90;;;;;;5058068;28;20056;-63
2022/07/09 04:00:53;;;;;;;15.93;7.88;;;15.70;99.90;;;;;;5047525;28;20037;-63
2022/07/09 04:03:19;;;;;;;14.93;7.05;;;15.70;99.90;;;;;;5055659;28;20029;-63
2022/07/09 04:05:44;;;;;;;16.58;7.30;;;15.70;99.90;;;;;;5047668;28;20040;-63
2022/07/09 04:08:10;;;;;;;13.68;7.53;;;15.70;99.90;;;;;;5047386;28;20048;-64
2022/07/09 04:10:36;;;;;;;15.35;7.63;;;15.80;99.90;;;;;;5052566;28;20045;-63
2022/07/09 04:13:02;;;;;;;12.18;7.63;;;15.80;99.90;;;;;;5049438;28;20047;-63
2022/07/09 04:15:27;;;;;;;13.65;7.13;;;15.90;99.90;;;;;;5050463;28;20044;-63
2022/07/09 04:17:53;;;;;;;12.85;7.53;;;15.80;99.90;;;;;;5047982;28;20037;-63
2022/07/09 04:20:18;;;;;;;18.45;7.88;;;15.90;99.90;;;;;;5050097;28;20037;-63
2022/07/09 04:22:44;;;;;;;14.15;7.60;;;15.90;99.90;;;;;;5053879;28;20185;-64
2022/07/09 04:25:09;;;;;;;14.27;7.47;;;15.80;99.90;;;;;;5051491;28;20036;-63
2022/07/09 04:27:38;;;;;;;15.35;6.88;;;15.80;99.90;;;;;;5049376;28;20048;-63
2022/07/09 04:30:05;;;;;;;16.65;6.88;;;15.80;99.90;;;;;;5050689;28;21608;-63
2022/07/09 04:32:31;;;;;;;12.90;7.28;;;15.80;99.90;;;;;;5050145;28;20056;-63
2022/07/09 04:34:56;;;;;;;13.48;7.00;;;15.90;99.90;;;;;;5048619;28;20045;-63
2022/07/09 04:37:22;;;;;;;13.85;6.20;;;15.90;99.90;;;;;;5056925;28;20037;-63
2022/07/09 04:39:48;;;;;;;12.70;6.95;;;15.90;99.90;;;;;;5057792;28;20056;-63
2022/07/09 04:42:14;;;;;;;13.38;6.57;;;15.90;99.90;;;;;;5053794;28;20174;-64
2022/07/09 04:44:41;;;;;;;11.82;5.95;;;16.00;99.90;;;;;;5054061;28;20490;-63
2022/07/09 04:47:07;;;;;;;11.40;6.70;;;16.00;99.90;;;;;;5062871;28;20049;-63
2022/07/09 04:49:36;;;;;;;11.35;6.75;;;16.00;99.90;;;;;;5053256;28;20037;-63
2022/07/09 04:52:02;;;;;;;12.25;6.18;;;16.00;99.90;;;;;;5049758;28;20129;-63
2022/07/09 04:54:28;;;;;;;12.52;6.57;;;16.10;99.90;;;;;;5053042;28;20409;-64
2022/07/09 04:56:53;;;;;;;13.50;6.38;;;16.10;99.90;;;;;;5055136;28;20048;-63
2022/07/09 04:59:20;;;;;;;15.30;6.80;;;16.10;99.90;;;;;;5057200;28;20037;-64
2022/07/09 05:01:46;;;;;;;14.25;6.30;;;16.10;99.90;;;;;;5043915;28;20578;-64
2022/07/09 05:04:12;;;;;;;13.80;5.55;;;16.10;99.90;;;;;;5051708;28;20040;-63
2022/07/09 05:06:37;;;;;;;15.60;6.30;;;16.20;99.90;;;;;;5061701;28;20056;-63
2022/07/09 05:09:03;;;;;;;11.80;5.82;;;16.20;99.90;;;;;;5051574;28;20412;-63
2022/07/09 05:11:29;;;;;;;11.77;7.00;;;16.30;99.90;;;;;;5051736;28;20045;-63
2022/07/09 05:13:56;;;;;;;11.23;5.32;;;16.30;99.90;;;;;;5056103;28;20477;-63
2022/07/09 05:16:21;;;;;;;9.77;5.32;;;16.40;99.90;;;;;;5053974;28;20066;-63
2022/07/09 05:18:47;;;;;;;12.82;6.50;;;16.40;99.90;;;;;;5057373;28;20045;-63
2022/07/09 05:21:12;;;;;;;12.45;5.60;;;16.50;99.90;;;;;;5051048;28;20804;-63
2022/07/09 05:23:38;;;;;;;11.85;6.70;;;16.50;99.90;;;;;;5049736;28;20048;-63
2022/07/09 05:26:04;;;;;;;12.50;6.00;;;16.50;99.90;;;;;;5058528;28;20064;-63
2022/07/09 05:28:30;;;;;;;11.00;5.63;;;16.60;99.90;;;;;;5055357;28;20064;-63
2022/07/09 05:30:55;;;;;;;14.73;5.93;;;16.70;99.90;;;;;;5055204;28;20040;-63
2022/07/09 05:33:21;;;;;;;12.38;6.20;;;16.70;99.90;;;;;;5050840;28;20103;-64
2022/07/09 05:35:46;;;;;;;13.38;5.75;;;16.70;99.90;;;;;;5058292;28;20033;-64
2022/07/09 05:38:12;;;;;;;11.57;5.82;;;16.90;99.90;;;;;;5056344;28;20215;-63
2022/07/09 05:40:37;;;;;;;10.45;5.95;;;17.00;99.90;;;;;;5057470;28;20348;-64
2022/07/09 05:43:03;;;;;;;12.35;5.93;;;17.10;99.90;;;;;;5053461;28;20133;-64
2022/07/09 05:45:29;;;;;;;17.10;6.32;;;17.30;99.90;;;;;;5050982;28;20048;-64
2022/07/09 05:47:55;;;;;;;12.55;5.53;;;17.30;99.90;;;;;;5052657;28;20033;-64
2022/07/09 05:50:21;;;;;;;10.23;4.80;;;17.40;99.90;;;;;;5051879;28;20067;-63
2022/07/09 05:52:47;;;;;;;10.80;5.65;;;17.50;99.90;;;;;;5057592;28;20040;-63
2022/07/09 05:55:13;;;;;;;12.20;5.40;;;17.50;99.90;;;;;;5073473;28;20515;-63
2022/07/09 05:57:39;;;;;;;8.43;4.75;;;17.50;99.90;;;;;;5053123;28;20063;-64
2022/07/09 06:00:07;;;;;;;11.23;5.32;;;17.50;99.90;;;;;;5051522;28;20067;-63
2022/07/09 06:02:32;;;;;;;10.13;4.70;;;17.50;99.90;;;;;;5057344;28;20041;-63
2022/07/09 06:04:58;;;;;;;9.52;4.85;;;17.50;99.90;;;;;;5061447;28;20043;-63
2022/07/09 06:07:23;;;;;;;10.70;5.22;;;17.50;99.90;;;;;;5059636;28;20041;-63
2022/07/09 06:09:49;;;;;;;8.93;4.90;;;17.60;99.90;;;;;;5051575;28;20051;-63
2022/07/09 06:12:15;;;;;;;8.63;3.72;;;17.60;99.90;;;;;;5057296;28;20040;-63
2022/07/09 06:14:40;;;;;;;8.75;4.18;;;17.60;99.90;;;;;;5050204;28;20052;-64
2022/07/09 06:17:06;;;;;;;8.38;3.75;;;17.70;99.90;;;;;;5056749;28;20036;-64
2022/07/09 06:19:36;;;;;;;7.93;3.22;;;17.80;99.90;;;;;;5048408;28;20035;-64
2022/07/09 06:22:03;;;;;;;6.13;3.58;;;17.90;99.90;;;;;;5061735;28;20044;-64
2022/07/09 06:24:32;;;;;;;7.45;3.55;;;17.90;99.90;;;;;;5058620;28;20072;-63
2022/07/09 06:26:57;;;;;;;8.20;3.80;;;18.00;99.90;;;;;;5052497;28;20037;-64
2022/07/09 06:29:23;;;;;;;6.75;3.25;;;18.00;99.90;;;;;;5061623;28;20762;-64
2022/07/09 06:31:49;;;;;;;6.63;3.22;;;18.10;99.90;;;;;;5057853;28;20049;-64
2022/07/09 06:34:14;;;;;;;10.75;3.85;;;18.10;99.90;;;;;;5052323;28;20087;-64
2022/07/09 06:36:44;;;;;;;6.82;3.95;;;18.10;99.90;;;;;;5050071;28;20041;-64
2022/07/09 06:41:54;;;;;;;7.97;3.28;;;18.00;99.90;;;;;;5057719;28;20355;-64
2022/07/09 06:44:20;;;;;;;8.55;3.40;;;18.10;99.90;;;;;;5050830;28;20438;-64
2022/07/09 06:46:45;;;;;;;7.22;3.42;;;18.10;99.90;;;;;;5062557;28;20134;-63
2022/07/09 06:49:11;;;;;;;6.55;3.60;;;18.10;99.90;;;;;;5053956;28;20189;-64
2022/07/09 06:51:37;;;;;;;7.13;3.42;;;18.10;99.90;;;;;;5057954;28;20102;-64
2022/07/09 06:54:02;;;;;;;6.13;2.90;;;18.20;99.90;;;;;;5058354;28;20063;-64
2022/07/09 06:56:28;;;;;;;4.95;3.35;;;18.30;99.90;;;;;;5058588;28;20045;-64
2022/07/09 06:58:53;;;;;;;5.85;3.42;;;18.40;99.90;;;;;;5059154;28;20037;-64
2022/07/09 07:01:19;;;;;;;8.75;2.90;;;18.50;99.90;;;;;;5053230;28;20037;-64
2022/07/09 07:03:44;;;;;;;5.43;2.97;;;18.50;99.90;;;;;;5052303;28;20036;-64
2022/07/09 07:06:10;;;;;;;5.60;2.78;;;18.60;99.90;;;;;;5052896;28;20560;-64
2022/07/09 07:08:36;;;;;;;9.05;3.17;;;18.60;99.90;;;;;;5062386;28;20127;-64
2022/07/09 07:11:01;;;;;;;7.97;2.95;;;18.60;99.90;;;;;;5063781;28;20041;-64
2022/07/09 07:13:27;;;;;;;8.68;3.38;;;18.70;99.90;;;;;;5052230;28;20045;-64
2022/07/09 07:15:52;;;;;;;6.05;3.03;;;18.70;99.90;;;;;;5051054;28;20040;-64
2022/07/09 07:18:18;;;;;;;6.53;2.67;;;18.70;99.90;;;;;;5063448;28;20496;-64
2022/07/09 07:20:45;;;;;;;5.47;2.90;;;18.70;99.90;;;;;;5051019;28;20481;-64
2022/07/09 07:23:10;;;;;;;7.13;3.00;;;18.70;99.90;;;;;;5059193;28;20076;-64
2022/07/09 07:25:36;;;;;;;10.13;3.22;;;18.80;99.90;;;;;;5054814;28;20087;-63
2022/07/09 07:28:03;;;;;;;7.75;3.15;;;18.80;99.90;;;;;;5063542;28;20043;-63
2022/07/09 07:30:32;;;;;;;6.68;2.80;;;18.80;99.90;;;;;;5056410;28;20479;-64
2022/07/09 07:32:58;;;;;;;6.50;2.78;;;18.70;99.90;;;;;;5064388;28;20442;-63
2022/07/09 07:35:24;;;;;;;4.90;2.60;;;18.80;99.90;;;;;;5056703;28;20110;-64
2022/07/09 07:37:49;;;;;;;5.72;2.80;;;18.80;99.90;;;;;;5061577;28;20033;-64
2022/07/09 07:40:15;;;;;;;5.85;2.83;;;18.90;99.90;;;;;;5055070;28;20105;-64
2022/07/09 07:42:41;;;;;;;3.92;2.40;;;18.90;99.90;;;;;;5059274;28;20586;-64
2022/07/09 07:45:07;;;;;;;4.78;2.75;;;19.00;99.90;;;;;;5059818;28;20340;-64
2022/07/09 07:47:32;;;;;;;4.35;2.20;;;19.10;99.90;;;;;;5051829;28;20132;-64
2022/07/09 07:49:59;;;;;;;6.07;2.70;;;19.20;99.90;;;;;;5061587;28;20129;-64
2022/07/09 07:52:25;;;;;;;4.95;2.60;;;19.50;99.90;;;;;;5070604;28;20399;-64
2022/07/09 07:54:51;;;;;;;5.10;2.58;;;19.80;99.90;;;;;;5071519;28;20052;-64
2022/07/09 07:57:16;;;;;;;4.13;2.38;;;20.10;99.90;;;;;;5072164;28;20048;-64
2022/07/09 07:59:42;;;;;;;4.85;2.25;;;20.30;99.90;;;;;;5051184;28;20041;-64
2022/07/09 08:02:07;;;;;;;7.03;2.70;;;20.60;99.90;;;;;;5051092;28;20040;-64
2022/07/09 08:04:33;;;;;;;3.45;1.88;;;20.70;99.90;;;;;;5070808;28;20033;-64
2022/07/09 08:06:58;;;;;;;4.38;2.17;;;20.70;99.90;;;;;;5070440;28;20364;-64
2022/07/09 08:09:24;;;;;;;2.67;2.08;;;20.70;99.90;;;;;;5068654;28;20186;-63
2022/07/09 08:11:49;;;;;;;3.90;2.28;;;20.70;99.90;;;;;;5074575;28;20064;-64
2022/07/09 08:14:15;;;;;;;3.75;1.88;;;20.80;99.90;;;;;;5076211;28;20381;-64
2022/07/09 08:16:40;;;;;;;4.55;1.98;;;20.80;99.70;;;;;;5075773;28;20404;-64
2022/07/09 08:19:06;;;;;;;5.35;1.98;;;21.00;98.90;;;;;;5069929;28;20120;-64
2022/07/09 08:21:32;;;;;;;3.90;2.00;;;21.20;98.50;;;;;;5054037;28;20037;-64
2022/07/09 08:24:00;;;;;;;3.40;1.73;;;21.10;97.70;;;;;;5054490;28;20045;-64
2022/07/09 08:26:27;;;;;;;3.97;2.05;;;21.20;97.30;;;;;;5056138;28;20120;-64
2022/07/09 08:28:53;;;;;;;4.07;1.77;;;21.40;96.90;;;;;;5056993;28;20107;-64
2022/07/09 08:31:20;;;;;;;3.33;1.75;;;21.40;96.80;;;;;;5075684;28;20040;-64
2022/07/09 08:33:46;;;;;;;3.28;1.63;;;21.30;96.10;;;;;;5072914;28;20567;-66
2022/07/09 08:36:12;;;;;;;3.25;1.90;;;21.70;96.00;;;;;;5052658;28;20210;-65
2022/07/09 08:38:37;;;;;;;3.55;1.90;;;22.10;96.00;;;;;;5053078;28;20037;-64
2022/07/09 08:41:05;;;;;;;3.10;1.33;;;22.60;95.40;;;;;;5054640;28;20065;-65
2022/07/09 08:43:39;;;;;;;2.75;1.30;;;23.10;94.30;;;;;;5055822;28;20376;-67
2022/07/09 08:46:06;;;;;;;2.85;1.40;;;24.00;91.60;;;;;;5054257;28;20382;-65
2022/07/09 08:48:34;;;;;;;3.40;1.63;;;24.50;91.40;;;;;;5036774;28;20503;-66
2022/07/09 08:51:01;;;;;;;3.45;1.30;;;24.40;90.10;;;;;;5070156;28;20594;-65
2022/07/09 08:53:30;;;;;;;4.15;1.52;;;24.00;89.50;;;;;;5073048;28;20039;-66
2022/07/09 08:55:57;;;;;;;2.33;1.42;;;24.00;88.30;;;;;;5073086;28;20102;-66
2022/07/09 08:58:23;;;;;;;2.50;1.33;;;24.60;86.10;;;;;;5074868;28;20037;-67
2022/07/09 09:00:52;;;;;;;4.40;1.60;;;24.70;85.10;;;;;;5054422;28;20037;-65
2022/07/09 09:03:18;;;;;;;2.83;1.40;;;24.50;84.50;;;;;;5054987;28;20049;-67
2022/07/09 09:05:44;;;;;;;3.47;1.23;;;24.30;84.30;;;;;;5053821;28;20506;-64
2022/07/09 09:08:22;;;;;;;2.42;1.40;;;24.10;84.10;;;;;;5052312;28;20562;-66
2022/07/09 09:10:48;;;;;;;3.60;1.45;;;24.10;81.90;;;;;;5069805;28;20174;-66
2022/07/09 09:13:21;;;;;;;4.47;1.33;;;24.00;82.70;;;;;;5075223;28;20503;-65
2022/07/09 09:15:46;;;;;;;2.05;1.00;;;23.80;82.30;;;;;;5067632;28;20037;-65
2022/07/09 09:18:12;;;;;;;1.85;1.38;;;24.30;81.50;;;;;;5073525;28;20467;-65
2022/07/09 09:20:44;;;;;;;3.13;1.45;;;25.10;79.20;;;;;;5056820;28;20389;-65
2022/07/09 09:23:16;;;;;;;1.13;0.88;;;25.70;77.20;;;;;;5051071;28;20095;-66
2022/07/09 09:25:41;;;;;;;2.65;0.90;;;26.00;73.60;;;;;;5053149;28;20435;-65
2022/07/09 09:28:08;;;;;;;2.55;1.20;;;25.60;74.20;;;;;;5054739;28;20124;-64
2022/07/09 09:30:42;;;;;;;5.35;1.15;;;25.00;74.80;;;;;;5068052;28;20036;-65
2022/07/09 09:33:08;;;;;;;4.13;1.10;;;23.50;79.00;;;;;;5073389;28;20529;-65
2022/07/09 09:35:35;;;;;;;4.28;1.58;;;22.70;83.00;;;;;;5073217;28;20040;-65
2022/07/09 09:38:01;;;;;;;2.17;1.20;;;22.30;85.10;;;;;;5071760;28;20045;-66
2022/07/09 09:40:27;;;;;;;5.15;1.38;;;23.30;84.30;;;;;;5057605;28;20047;-66
2022/07/09 09:42:53;;;;;;;2.50;1.25;;;24.70;80.50;;;;;;5054984;28;20090;-66
2022/07/09 09:45:19;;;;;;;2.65;1.17;;;25.30;77.30;;;;;;5054231;28;20041;-66
2022/07/09 09:47:49;;;;;;;5.22;1.70;;;25.70;74.90;;;;;;5054064;28;20621;-65
2022/07/09 09:50:24;;;;;;;5.25;1.50;;;26.20;72.60;;;;;;5063616;28;20213;-66
2022/07/09 09:52:53;;;;;;;3.30;1.20;;;26.50;68.70;;;;;;5071057;28;20598;-65
2022/07/09 09:55:20;;;;;;;5.25;1.40;;;26.50;69.90;;;;;;5057663;28;20049;-65
2022/07/09 09:57:47;;;;;;;3.03;1.48;;;26.90;68.00;;;;;;5070202;28;20516;-67
2022/07/09 10:00:15;;;;;;;2.00;1.08;;;27.30;66.40;;;;;;5053498;28;20044;-65
2022/07/09 10:02:46;;;;;;;2.08;0.85;;;27.60;65.10;;;;;;5052005;28;20373;-65
2022/07/09 10:05:12;;;;;;;2.22;0.80;;;27.40;62.60;;;;;;5053258;28;20572;-65
2022/07/09 10:07:42;;;;;;;2.53;1.30;;;27.20;62.50;;;;;;5051536;28;20052;-66
2022/07/09 10:10:16;;;;;;;2.30;0.70;;;27.30;61.20;;;;;;5052382;28;20518;-66
2022/07/09 10:12:41;;;;;;;3.67;1.10;;;28.10;60.20;;;;;;5054449;28;20045;-67
2022/07/09 10:15:25;;;;;;;4.53;1.35;;;28.30;59.00;;;;;;5053707;28;20655;-65
2022/07/09 10:17:50;;;;;;;3.08;1.10;;;27.70;58.00;;;;;;5053657;28;20124;-66
2022/07/09 10:20:16;;;;;;;2.63;1.20;;;27.00;60.00;;;;;;5051236;28;20616;-69
2022/07/09 10:22:44;;;;;;;1.83;0.98;;;26.60;60.50;;;;;;5050445;28;20373;-66
2022/07/09 10:25:12;;;;;;;4.25;1.40;;;26.30;61.30;;;;;;5052245;28;20049;-65
2022/07/09 10:27:45;;;;;;;5.20;1.17;;;26.00;61.80;;;;;;5053402;28;20169;-66
2022/07/09 10:30:30;;;;;;;3.78;1.55;;;26.80;61.10;;;;;;5062194;28;20047;-66
2022/07/09 10:33:03;;;;;;;3.25;1.00;;;27.90;57.90;;;;;;5073038;28;20062;-66
2022/07/09 10:35:28;;;;;;;4.53;1.42;;;29.40;56.20;;;;;;5056762;28;20542;-68
2022/07/09 10:37:54;;;;;;;2.75;1.00;;;30.30;54.30;;;;;;5050268;28;20037;-66
2022/07/09 10:40:21;;;;;;;2.97;1.40;;;30.90;52.70;;;;;;5057869;28;20033;-66
2022/07/09 10:43:03;;;;;;;3.28;1.65;;;30.50;52.10;;;;;;5071926;28;20120;-67
2022/07/09 10:45:34;;;;;;;3.17;0.98;;;29.70;51.30;;;;;;5055222;28;20048;-67
2022/07/09 10:48:01;;;;;;;3.30;1.40;;;29.70;52.50;;;;;;5052359;28;20040;-66
2022/07/09 10:50:29;;;;;;;4.45;1.65;;;29.20;52.90;;;;;;5060712;28;20048;-66
2022/07/09 10:52:55;;;;;;;6.85;1.20;;;28.80;53.20;;;;;;5069172;28;20052;-67
2022/07/09 10:55:26;;;;;;;5.47;1.20;;;28.50;53.40;;;;;;5072789;28;20052;-67
2022/07/09 10:57:52;;;;;;;3.42;1.23;;;28.70;52.90;;;;;;5062761;28;20036;-66
2022/07/09 11:00:21;;;;;;;2.33;1.10;;;29.20;52.80;;;;;;5053125;28;20124;-66
2022/07/09 11:02:58;;;;;;;1.70;0.88;;;30.00;51.40;;;;;;5052319;28;20087;-65
2022/07/09 11:05:25;;;;;;;3.83;1.17;;;30.50;48.30;;;;;;5051302;28;20090;-67
2022/07/09 11:08:05;;;;;;;2.65;1.13;;;30.10;49.70;;;;;;5050207;28;20041;-66
2022/07/09 11:10:32;;;;;;;2.40;1.20;;;29.60;50.30;;;;;;5063119;28;20041;-67
2022/07/09 11:13:00;;;;;;;3.80;1.20;;;29.10;51.50;;;;;;5071477;28;20119;-70
2022/07/09 11:15:33;;;;;;;3.75;1.45;;;28.30;52.80;;;;;;5070888;28;20032;-67
2022/07/09 11:18:01;;;;;;;3.72;1.30;;;27.50;54.10;;;;;;5072140;28;20719;-67
2022/07/09 11:20:28;;;;;;;6.82;1.63;;;26.80;55.40;;;;;;5059359;28;20032;-66
2022/07/09 11:22:57;;;;;;;5.18;1.30;;;26.20;56.80;;;;;;5050112;28;20040;-68
2022/07/09 11:25:27;;;;;;;4.47;1.50;;;25.60;58.00;;;;;;5052913;28;20068;-68
2022/07/09 11:27:57;;;;;;;7.10;1.75;;;25.20;58.90;;;;;;5061614;28;20051;-69
2022/07/09 11:30:24;;;;;;;6.47;2.13;;;25.00;60.00;;;;;;5071068;28;20044;-67
2022/07/09 11:32:50;;;;;;;7.93;1.90;;;25.00;60.80;;;;;;5071922;28;20048;-67
2022/07/09 11:35:43;;;;;;;6.25;1.30;;;25.00;61.00;;;;;;5057736;28;20052;-66
2022/07/09 11:38:08;;;;;;;6.22;1.40;;;25.10;60.70;;;;;;5049415;28;20155;-68
2022/07/09 11:40:34;;;;;;;4.00;1.35;;;25.00;60.90;;;;;;5050718;28;20497;-67
2022/07/09 11:42:59;;;;;;;8.25;1.63;;;25.10;60.70;;;;;;5050247;28;20049;-69
2022/07/09 11:45:29;;;;;;;8.95;1.52;;;25.10;60.50;;;;;;5060798;28;20033;-67
2022/07/09 11:48:05;;;;;;;4.13;1.20;;;25.00;60.30;;;;;;5071353;28;20040;-67
2022/07/09 11:50:31;;;;;;;7.13;1.83;;;25.00;60.00;;;;;;5058094;28;20541;-68
2022/07/09 11:52:56;;;;;;;4.97;1.58;;;24.90;60.30;;;;;;5049646;28;20037;-66
2022/07/09 11:55:29;;;;;;;5.13;1.67;;;24.90;60.40;;;;;;5051819;28;20072;-67
2022/07/09 11:58:05;;;;;;;4.72;1.38;;;25.00;60.30;;;;;;5058824;28;20078;-65
2022/07/09 12:00:33;;;;;;;3.97;1.40;;;25.10;60.40;;;;;;5071826;28;20050;-66
2022/07/09 12:03:02;;;;;;;4.97;1.45;;;25.20;60.30;;;;;;5071799;28;20033;-67
2022/07/09 12:05:32;;;;;;;2.87;1.10;;;25.10;60.20;;;;;;5061318;28;20064;-65
2022/07/09 12:07:59;;;;;;;4.28;1.30;;;25.10;59.80;;;;;;5049533;28;20056;-66
2022/07/09 12:10:42;;;;;;;5.85;1.40;;;25.20;59.60;;;;;;5052237;28;20464;-69
2022/07/09 12:13:09;;;;;;;3.47;1.08;;;25.50;59.10;;;;;;5055432;28;20029;-67
2022/07/09 12:15:35;;;;;;;3.13;1.23;;;25.90;58.60;;;;;;5036293;28;20047;-67
2022/07/09 12:18:01;;;;;;;3.53;0.90;;;26.30;57.00;;;;;;5053568;28;20075;-68
2022/07/09 12:20:30;;;;;;;4.38;0.82;;;26.80;55.50;;;;;;5053765;28;20230;-67
2022/07/09 12:22:56;;;;;;;3.15;1.15;;;27.20;53.70;;;;;;5053246;28;20037;-68
2022/07/09 12:25:21;;;;;;;1.95;0.80;;;27.60;52.50;;;;;;5061973;28;20051;-68
2022/07/09 12:27:49;;;;;;;4.38;1.00;;;27.70;51.40;;;;;;5063527;28;20043;-67
2022/07/09 12:30:16;;;;;;;4.03;0.93;;;27.90;50.80;;;;;;5060290;28;20082;-69
2022/07/09 12:32:42;;;;;;;2.63;0.80;;;28.00;50.10;;;;;;5060646;28;20111;-67
2022/07/09 12:35:09;;;;;;;2.80;0.65;;;29.20;48.20;;;;;;5050302;28;20045;-67
2022/07/09 12:37:35;;;;;;;2.25;0.90;;;30.00;45.80;;;;;;5048411;28;20752;-67
2022/07/09 12:40:02;;;;;;;2.05;0.90;;;29.80;44.80;;;;;;5049983;28;20641;-67
2022/07/09 12:42:27;;;;;;;2.40;1.00;;;30.60;43.80;;;;;;5052021;28;20079;-69